Time;durP1;ratioP1;P1;durP2;ratioP2;P2;SDS_P1;SDS_P2;PMS_P1;PMS_P2;Temp;Humidity;BMP_temperature;BMP_pressure;BME280_temperature;BME280_humidity;BME280_pressure;Samples;Min_cycle;Max_cycle;Signal;HPM_P1;HPM_P2
2022/04/03 00:01:55;;;;;;;;;;;-0.10;84.40;;;;;;5038980;28;19939;-81
2022/04/03 00:04:20;;;;;;;;;;;-0.10;83.90;;;;;;5041362;28;20422;-81
2022/04/03 00:06:46;;;;;;;;;;;-0.10;83.90;;;;;;5035131;28;20400;-81
2022/04/03 00:09:11;;;;;;;;;;;-0.10;84.20;;;;;;5021174;28;20344;-81
2022/04/03 00:11:36;;;;;;;;;;;-0.10;84.30;;;;;;5024343;28;19936;-81
2022/04/03 00:14:02;;;;;;;;;;;-0.10;85.40;;;;;;5019896;28;19995;-81
2022/04/03 00:16:27;;;;;;;;;;;-0.10;85.90;;;;;;5025184;28;19917;-81
2022/04/03 00:18:53;;;;;;;;;;;-0.10;86.70;;;;;;5041552;28;19913;-81
2022/04/03 00:21:19;;;;;;;;;;;-0.10;87.20;;;;;;5041541;28;19959;-81
2022/04/03 00:23:44;;;;;;;;;;;-0.20;87.90;;;;;;5036512;28;19917;-81
2022/04/03 00:26:10;;;;;;;;;;;-0.20;87.60;;;;;;5027059;28;19921;-81
2022/04/03 00:28:36;;;;;;;;;;;-0.20;87.00;;;;;;5033846;28;19960;-81
2022/04/03 00:31:02;;;;;;;;;;;-0.20;87.10;;;;;;5026683;28;19944;-81
2022/04/03 00:33:27;;;;;;;;;;;-0.20;88.00;;;;;;5024726;28;19917;-81
2022/04/03 00:35:53;;;;;;;;;;;-0.20;87.60;;;;;;5015442;28;19928;-81
2022/04/03 00:38:18;;;;;;;;;;;-0.30;87.80;;;;;;5021748;28;19921;-81
2022/04/03 00:40:45;;;;;;;;;;;-0.40;88.10;;;;;;5013794;28;20408;-81
2022/04/03 00:43:11;;;;;;;;;;;-0.50;88.60;;;;;;5026247;28;19917;-81
2022/04/03 00:45:38;;;;;;;;;;;-0.50;89.20;;;;;;5018737;28;19923;-81
2022/04/03 00:48:03;;;;;;;;;;;-0.60;90.20;;;;;;5028161;28;19917;-81
2022/04/03 00:50:29;;;;;;;;;;;-0.60;90.20;;;;;;5041448;28;19917;-80
2022/04/03 00:52:55;;;;;;;;;;;-0.60;90.20;;;;;;5041291;28;19963;-80
2022/04/03 00:55:20;;;;;;;;;;;-0.60;90.50;;;;;;5038096;28;19923;-81
2022/04/03 00:57:45;;;;;;;;;;;-0.70;90.40;;;;;;5020123;28;19917;-80
2022/04/03 01:00:14;;;;;;;;;;;-0.70;90.40;;;;;;5037686;28;19955;-80
2022/04/03 01:02:40;;;;;;;;;;;-0.80;90.60;;;;;;5018259;28;19918;-80
2022/04/03 01:05:06;;;;;;;;;;;-0.90;90.60;;;;;;5020156;28;20435;-81
2022/04/03 01:07:31;;;;;;;;;;;-0.90;90.70;;;;;;5017142;28;19917;-81
2022/04/03 01:09:58;;;;;;;;;;;-0.90;90.80;;;;;;5037045;28;20385;-80
2022/04/03 01:12:23;;;;;;;;;;;-0.90;91.10;;;;;;5017758;28;20381;-80
2022/04/03 01:14:49;;;;;;;;;;;-0.90;91.20;;;;;;5024425;28;19919;-80
2022/04/03 01:17:14;;;;;;;;;;;-0.90;91.10;;;;;;5019582;28;19921;-80
2022/04/03 01:19:40;;;;;;;;;;;-0.90;90.80;;;;;;5022386;28;19925;-81
2022/04/03 01:22:06;;;;;;;;;;;-0.90;90.90;;;;;;5022995;28;20008;-80
2022/04/03 01:24:32;;;;;;;;;;;-0.90;90.80;;;;;;5025024;28;19966;-81
2022/04/03 01:26:57;;;;;;;;;;;-0.90;90.70;;;;;;5018189;28;19921;-80
2022/04/03 01:29:23;;;;;;;;;;;-1.00;90.70;;;;;;5022395;28;19917;-80
2022/04/03 01:31:49;;;;;;;;;;;-1.00;90.90;;;;;;5017171;28;19921;-81
2022/04/03 01:34:15;;;;;;;;;;;-1.00;90.90;;;;;;5020084;28;20055;-80
2022/04/03 01:36:40;;;;;;;;;;;-1.00;90.80;;;;;;5017625;28;20490;-80
2022/04/03 01:39:06;;;;;;;;;;;-1.00;90.70;;;;;;5016857;28;19928;-80
2022/04/03 01:41:31;;;;;;;;;;;-1.10;90.80;;;;;;5022345;28;20001;-80
2022/04/03 01:43:57;;;;;;;;;;;-1.10;91.20;;;;;;5018534;28;19936;-80
2022/04/03 01:46:22;;;;;;;;;;;-1.00;91.50;;;;;;5023900;28;20642;-80
2022/04/03 01:48:48;;;;;;;;;;;-1.00;91.50;;;;;;5017453;28;19917;-81
2022/04/03 01:51:13;;;;;;;;;;;-1.00;91.70;;;;;;5021986;28;19917;-81
2022/04/03 01:53:39;;;;;;;;;;;-1.00;91.80;;;;;;5035330;28;19920;-80
2022/04/03 01:56:06;;;;;;;;;;;-1.00;91.80;;;;;;5040082;28;19991;-81
2022/04/03 01:58:32;;;;;;;;;;;-1.00;91.70;;;;;;5021084;28;20015;-80
2022/04/03 02:00:57;;;;;;;;;;;-1.10;91.70;;;;;;5021938;28;20007;-81
2022/04/03 02:03:23;;;;;;;;;;;-1.10;91.90;;;;;;5015411;28;19914;-80
2022/04/03 02:05:48;;;;;;;;;;;-1.10;92.10;;;;;;5021494;28;19964;-80
2022/04/03 02:08:14;;;;;;;;;;;-1.10;92.20;;;;;;5017712;28;20031;-80
2022/04/03 02:10:39;;;;;;;;;;;-1.00;92.40;;;;;;4990345;28;19913;-80
2022/04/03 02:13:05;;;;;;;;;;;-1.10;92.50;;;;;;5014967;28;19924;-80
2022/04/03 02:15:30;;;;;;;;;;;-1.10;92.70;;;;;;5020995;28;20435;-80
2022/04/03 02:17:56;;;;;;;;;;;-1.10;92.90;;;;;;5017650;28;20432;-80
2022/04/03 02:20:21;;;;;;;;;;;-1.00;92.90;;;;;;5014535;28;19921;-80
2022/04/03 02:22:47;;;;;;;;;;;-1.10;93.00;;;;;;5028230;28;19921;-80
2022/04/03 02:25:13;;;;;;;;;;;-1.10;93.20;;;;;;5033382;28;19913;-80
2022/04/03 02:27:39;;;;;;;;;;;-1.10;93.30;;;;;;5020812;28;20396;-80
2022/04/03 02:30:06;;;;;;;;;;;-1.10;93.30;;;;;;5013161;28;20445;-79
2022/04/03 02:32:31;;;;;;;;;;;-1.10;93.40;;;;;;5023058;28;20008;-80
2022/04/03 02:34:57;;;;;;;;;;;-1.10;93.50;;;;;;5013040;28;19928;-80
2022/04/03 02:37:22;;;;;;;;;;;-1.10;93.50;;;;;;5019759;28;19960;-80
2022/04/03 02:39:47;;;;;;;;;;;-1.20;93.60;;;;;;5015877;28;19926;-80
2022/04/03 02:42:13;;;;;;;;;;;-1.20;93.70;;;;;;5018247;28;19976;-80
2022/04/03 02:44:38;;;;;;;;;;;-1.20;93.80;;;;;;5015680;28;19928;-79
2022/04/03 02:47:04;;;;;;;;;;;-1.20;93.90;;;;;;5023661;28;19913;-79
2022/04/03 02:49:29;;;;;;;;;;;-1.30;94.10;;;;;;5015375;28;19917;-80
2022/04/03 02:51:55;;;;;;;;;;;-1.30;94.20;;;;;;5019727;28;19913;-80
2022/04/03 02:54:20;;;;;;;;;;;-1.30;94.30;;;;;;5015703;28;20932;-80
2022/04/03 02:56:46;;;;;;;;;;;-1.30;94.40;;;;;;5022698;28;19913;-80
2022/04/03 02:59:12;;;;;;;;;;;-1.40;94.40;;;;;;5013557;28;19921;-80
2022/04/03 03:01:38;;;;;;;;;;;-1.40;94.70;;;;;;5034391;28;19918;-80
2022/04/03 03:04:03;;;;;;;;;;;-1.40;94.60;;;;;;5034062;28;20035;-81
2022/04/03 03:06:28;;;;;;;;;;;-1.40;94.70;;;;;;5035067;28;20007;-80
2022/04/03 03:08:54;;;;;;;;;;;-1.40;94.70;;;;;;5037891;28;20487;-80
2022/04/03 03:11:19;;;;;;;;;;;-1.40;94.70;;;;;;5036270;28;20377;-80
2022/04/03 03:13:45;;;;;;;;;;;-1.40;94.80;;;;;;5037669;28;19916;-80
2022/04/03 03:16:10;;;;;;;;;;;-1.40;94.90;;;;;;5034970;28;20449;-79
2022/04/03 03:18:36;;;;;;;;;;;-1.50;94.80;;;;;;5038834;28;19917;-80
2022/04/03 03:21:01;;;;;;;;;;;-1.50;94.90;;;;;;5033423;28;19927;-79
2022/04/03 03:23:28;;;;;;;;;;;-1.50;94.90;;;;;;5038937;28;19909;-80
2022/04/03 03:25:53;;;;;;;;;;;-1.50;94.80;;;;;;5035505;28;19935;-80
2022/04/03 03:28:19;;;;;;;;;;;-1.50;94.90;;;;;;5036463;28;20464;-80
2022/04/03 03:30:44;;;;;;;;;;;-1.50;95.00;;;;;;5036912;28;19913;-80
2022/04/03 03:33:10;;;;;;;;;;;-1.60;95.00;;;;;;5036518;28;19919;-80
2022/04/03 03:35:35;;;;;;;;;;;-1.60;95.00;;;;;;5036954;28;19917;-80
2022/04/03 03:38:00;;;;;;;;;;;-1.60;95.10;;;;;;5018472;28;19921;-81
2022/04/03 03:40:27;;;;;;;;;;;-1.70;95.00;;;;;;5036844;28;19917;-80
2022/04/03 03:42:52;;;;;;;;;;;-1.70;95.10;;;;;;5037141;28;20522;-79
2022/04/03 03:45:18;;;;;;;;;;;-1.70;95.30;;;;;;5034851;28;19917;-79
2022/04/03 03:47:44;;;;;;;;;;;-1.70;95.20;;;;;;5038289;28;19955;-79
2022/04/03 03:50:10;;;;;;;;;;;-1.70;95.20;;;;;;5035158;28;19917;-79
2022/04/03 03:52:35;;;;;;;;;;;-1.60;95.20;;;;;;5036731;28;20804;-79
2022/04/03 03:55:01;;;;;;;;;;;-1.60;95.20;;;;;;5033982;28;19917;-80
2022/04/03 03:57:26;;;;;;;;;;;-1.70;95.20;;;;;;5035594;28;20065;-79
2022/04/03 03:59:52;;;;;;;;;;;-1.70;95.20;;;;;;5034427;28;19917;-79
2022/04/03 04:02:18;;;;;;;;;;;-1.70;95.20;;;;;;5033235;28;19920;-79
2022/04/03 04:04:43;;;;;;;;;;;-1.70;95.30;;;;;;5035146;28;19970;-79
2022/04/03 04:07:08;;;;;;;;;;;-1.70;95.30;;;;;;5036070;28;20775;-80
2022/04/03 04:09:34;;;;;;;;;;;-1.70;95.30;;;;;;5034636;28;19919;-79
2022/04/03 04:11:59;;;;;;;;;;;-1.60;95.40;;;;;;5037593;28;20437;-79
2022/04/03 04:14:25;;;;;;;;;;;-1.60;95.40;;;;;;5037028;28;20289;-79
2022/04/03 04:16:50;;;;;;;;;;;-1.60;95.60;;;;;;5036151;28;20361;-79
2022/04/03 04:19:16;;;;;;;;;;;-1.50;95.60;;;;;;5036031;28;20380;-79
2022/04/03 04:21:41;;;;;;;;;;;-1.50;95.70;;;;;;5037847;28;20296;-79
2022/04/03 04:24:07;;;;;;;;;;;-1.50;95.70;;;;;;5035838;28;19917;-80
2022/04/03 04:26:32;;;;;;;;;;;-1.50;95.80;;;;;;5035054;28;19917;-79
2022/04/03 04:28:58;;;;;;;;;;;-1.40;95.80;;;;;;5037114;28;20012;-79
2022/04/03 04:31:23;;;;;;;;;;;-1.30;95.80;;;;;;5035756;28;20009;-80
2022/04/03 04:33:49;;;;;;;;;;;-1.30;95.70;;;;;;5035806;28;19948;-79
2022/04/03 04:36:15;;;;;;;;;;;-1.30;95.70;;;;;;5036932;28;19920;-79
2022/04/03 04:38:40;;;;;;;;;;;-1.30;95.70;;;;;;5039693;28;20277;-79
2022/04/03 04:41:06;;;;;;;;;;;-1.30;95.80;;;;;;5038348;28;19928;-79
2022/04/03 04:43:31;;;;;;;;;;;-1.20;96.00;;;;;;5041019;28;20421;-79
2022/04/03 04:45:56;;;;;;;;;;;-1.20;95.80;;;;;;5039520;28;19923;-79
2022/04/03 04:48:22;;;;;;;;;;;-1.20;95.80;;;;;;5040185;28;19916;-79
2022/04/03 04:50:47;;;;;;;;;;;-1.20;95.80;;;;;;5040225;28;20000;-79
2022/04/03 04:53:13;;;;;;;;;;;-1.20;95.80;;;;;;5037621;28;19917;-79
2022/04/03 04:55:38;;;;;;;;;;;-1.20;95.90;;;;;;5038491;28;19916;-79
2022/04/03 04:58:04;;;;;;;;;;;-1.20;95.90;;;;;;5038847;28;19917;-79
2022/04/03 05:00:31;;;;;;;;;;;-1.20;96.00;;;;;;5036576;28;19960;-79
2022/04/03 05:02:56;;;;;;;;;;;-1.30;96.10;;;;;;5039096;28;19966;-79
2022/04/03 05:05:22;;;;;;;;;;;-1.20;96.10;;;;;;5037596;28;19937;-79
2022/04/03 05:07:49;;;;;;;;;;;-1.10;96.20;;;;;;5038357;28;19919;-79
2022/04/03 05:10:16;;;;;;;;;;;-1.10;96.20;;;;;;5036758;28;19919;-79
2022/04/03 05:12:42;;;;;;;;;;;-1.00;96.30;;;;;;5038677;28;19928;-79
2022/04/03 05:15:10;;;;;;;;;;;-1.00;96.20;;;;;;5038497;28;19928;-79
2022/04/03 05:17:36;;;;;;;;;;;-0.90;96.30;;;;;;5041295;28;19916;-79
2022/04/03 05:20:03;;;;;;;;;;;-0.90;96.20;;;;;;5039866;28;20016;-79
2022/04/03 05:22:29;;;;;;;;;;;-0.90;96.30;;;;;;5038094;28;19932;-79
2022/04/03 05:24:54;;;;;;;;;;;-0.80;96.30;;;;;;5039205;28;20290;-79
2022/04/03 05:27:20;;;;;;;;;;;-0.80;96.50;;;;;;5039428;28;20597;-80
2022/04/03 05:29:46;;;;;;;;;;;-0.80;96.40;;;;;;5038884;28;20285;-79
2022/04/03 05:32:11;;;;;;;;;;;-0.70;96.40;;;;;;5036034;28;19924;-79
2022/04/03 05:34:37;;;;;;;;;;;-0.60;96.30;;;;;;5036518;28;19928;-79
2022/04/03 05:37:03;;;;;;;;;;;-0.60;96.30;;;;;;5040469;28;19913;-80
2022/04/03 05:39:28;;;;;;;;;;;-0.60;96.20;;;;;;5036519;28;20021;-79
2022/04/03 05:41:55;;;;;;;;;;;-0.60;96.30;;;;;;5037675;28;20267;-79
2022/04/03 05:44:24;;;;;;;;;;;-0.50;96.30;;;;;;5034815;28;19959;-79
2022/04/03 05:46:50;;;;;;;;;;;-0.50;96.20;;;;;;5038669;28;19935;-80
2022/04/03 05:49:16;;;;;;;;;;;-0.40;96.10;;;;;;5035664;28;20117;-79
2022/04/03 05:51:42;;;;;;;;;;;-0.40;96.10;;;;;;5037720;28;20337;-79
2022/04/03 05:54:07;;;;;;;;;;;-0.40;96.20;;;;;;5037176;28;19913;-79
2022/04/03 05:56:33;;;;;;;;;;;-0.30;96.20;;;;;;5039204;28;20373;-80
2022/04/03 05:58:59;;;;;;;;;;;-0.30;96.10;;;;;;5040157;28;19958;-79
2022/04/03 06:01:24;;;;;;;;;;;-0.20;96.10;;;;;;5035403;28;19996;-79
2022/04/03 06:03:49;;;;;;;;;;;-0.10;96.10;;;;;;5038080;28;20288;-79
2022/04/03 06:06:15;;;;;;;;;;;0.00;96.10;;;;;;5037598;28;19921;-81
2022/04/03 06:08:41;;;;;;;;;;;0.10;96.10;;;;;;5036960;28;19924;-82
2022/04/03 06:11:07;;;;;;;;;;;0.10;96.00;;;;;;5037895;28;19920;-82
2022/04/03 06:13:32;;;;;;;;;;;0.10;95.90;;;;;;5038272;28;20024;-83
2022/04/03 06:15:58;;;;;;;;;;;0.20;96.00;;;;;;5035454;28;20401;-83
2022/04/03 06:18:23;;;;;;;;;;;0.20;96.00;;;;;;5036825;28;19917;-82
2022/04/03 06:20:49;;;;;;;;;;;0.20;95.90;;;;;;5040116;28;19919;-82
2022/04/03 06:23:15;;;;;;;;;;;0.20;95.90;;;;;;5037239;28;20000;-83
2022/04/03 06:25:45;;;;;;;;;;;0.20;96.00;;;;;;5039518;28;19928;-83
2022/04/03 06:28:10;;;;;;;;;;;0.20;96.00;;;;;;5034760;28;20297;-82
2022/04/03 06:30:36;;;;;;;;;;;0.20;96.00;;;;;;5035807;28;20004;-82
2022/04/03 06:33:01;;;;;;;;;;;0.30;96.00;;;;;;5037796;28;19927;-82
2022/04/03 06:35:27;;;;;;;;;;;0.30;96.00;;;;;;5039132;28;20353;-82
2022/04/03 06:37:52;;;;;;;;;;;0.40;95.90;;;;;;5035518;28;19935;-82
2022/04/03 06:40:18;;;;;;;;;;;0.50;95.80;;;;;;5036170;28;19912;-82
2022/04/03 06:42:43;;;;;;;;;;;0.50;95.70;;;;;;5037334;28;19958;-83
2022/04/03 06:45:09;;;;;;;;;;;0.60;95.70;;;;;;5033736;28;19921;-83
2022/04/03 06:47:35;;;;;;;;;;;0.70;95.70;;;;;;5037129;28;19939;-83
2022/04/03 06:50:01;;;;;;;;;;;0.80;95.50;;;;;;5037328;28;19909;-83
2022/04/03 06:52:26;;;;;;;;;;;0.80;95.40;;;;;;5036403;28;20027;-83
2022/04/03 06:54:52;;;;;;;;;;;0.90;95.40;;;;;;5037045;28;19909;-83
2022/04/03 06:57:18;;;;;;;;;;;1.00;95.30;;;;;;5036281;28;20386;-83
2022/04/03 06:59:44;;;;;;;;;;;1.20;95.20;;;;;;5035531;28;19935;-83
2022/04/03 07:02:10;;;;;;;;;;;1.20;95.10;;;;;;5035597;28;20417;-83
2022/04/03 07:04:36;;;;;;;;;;;1.30;95.20;;;;;;5035520;28;19913;-83
2022/04/03 07:07:01;;;;;;;;;;;1.40;94.90;;;;;;5037484;28;19945;-83
2022/04/03 07:09:27;;;;;;;;;;;1.50;95.00;;;;;;5036303;28;20361;-83
2022/04/03 07:11:52;;;;;;;;;;;1.60;94.80;;;;;;5037037;28;20397;-83
2022/04/03 07:14:18;;;;;;;;;;;1.70;94.80;;;;;;5037134;28;19913;-83
2022/04/03 07:16:43;;;;;;;;;;;1.80;94.60;;;;;;5036276;28;19962;-83
2022/04/03 07:19:10;;;;;;;;;;;1.90;94.50;;;;;;5035645;28;19931;-83
2022/04/03 07:21:35;;;;;;;;;;;1.90;94.40;;;;;;5037723;28;19974;-83
2022/04/03 07:24:01;;;;;;;;;;;2.00;94.40;;;;;;5036616;28;20484;-83
2022/04/03 07:26:26;;;;;;;;;;;2.10;94.20;;;;;;5037656;28;19988;-84
2022/04/03 07:28:52;;;;;;;;;;;2.20;93.80;;;;;;5036928;28;19935;-82
2022/04/03 07:31:17;;;;;;;;;;;2.30;93.70;;;;;;5034692;28;20646;-67
2022/04/03 07:33:43;;;;;;;;;;;2.40;94.80;;;;;;5036122;28;20291;-67
2022/04/03 07:36:08;;;;;;;;;;;3.60;97.20;;;;;;5035765;28;19924;-76
2022/04/03 07:38:33;;;;;;;;;;;4.70;94.00;;;;;;5033579;28;19917;-79
2022/04/03 07:40:59;;;;;;;;;;;4.60;90.80;;;;;;5037741;28;19913;-79
2022/04/03 07:43:25;;;;;;;;;;;4.30;90.10;;;;;;5035324;28;19944;-79
2022/04/03 07:45:51;;;;;;;;;;;4.00;90.00;;;;;;5036890;28;19928;-77
2022/04/03 07:48:16;;;;;;;;;;;3.80;90.60;;;;;;5033251;28;19913;-75
2022/04/03 07:50:42;;;;;;;;;;;3.60;90.70;;;;;;5037989;28;19913;-79
2022/04/03 07:53:08;;;;;;;;;;;3.50;91.10;;;;;;5034055;28;19944;-67
2022/04/03 07:55:34;;;;;;;;;;;3.70;94.60;;;;;;5034751;28;19923;-77
2022/04/03 07:57:59;;;;;;;;;;;4.40;92.20;;;;;;5035023;28;19921;-81
2022/04/03 08:00:25;;;;;;;;;;;4.50;91.60;;;;;;5035684;28;19917;-79
2022/04/03 08:02:50;;;;;;;;;;;4.60;90.70;;;;;;5034584;28;20460;-80
2022/04/03 08:05:16;;;;;;;;;;;4.50;88.90;;;;;;5034785;28;19917;-79
2022/04/03 08:07:45;;;;;;;;;;;4.40;87.20;;;;;;5037336;28;19932;-78
2022/04/03 08:10:12;;;;;;;;;;;4.20;88.00;;;;;;5035788;28;19913;-79
2022/04/03 08:12:39;;;;;;;;;;;4.20;90.10;;;;;;5039835;28;20030;-78
2022/04/03 08:15:05;;;;;;;;;;;4.20;90.40;;;;;;5041410;28;19912;-79
2022/04/03 08:17:31;;;;;;;;;;;4.20;90.00;;;;;;5040142;28;19916;-80
2022/04/03 08:19:57;;;;;;;;;;;4.30;89.60;;;;;;5041459;28;20273;-78
2022/04/03 08:22:22;;;;;;;;;;;4.20;89.60;;;;;;5039697;28;19917;-81
2022/04/03 08:24:49;;;;;;;;;;;4.30;90.70;;;;;;5042097;28;20021;-79
2022/04/03 08:27:15;;;;;;;;;;;4.30;90.90;;;;;;5037438;28;19909;-78
2022/04/03 08:29:40;;;;;;;;;;;4.40;91.00;;;;;;5039057;28;19917;-79
2022/04/03 08:32:06;;;;;;;;;;;4.60;91.20;;;;;;5038494;28;19908;-80
2022/04/03 08:34:35;;;;;;;;;;;4.70;90.30;;;;;;5043073;28;19917;-81
2022/04/03 08:37:00;;;;;;;;;;;4.80;90.50;;;;;;5039348;28;19916;-80
2022/04/03 08:39:25;;;;;;;;;;;4.90;90.70;;;;;;5040035;28;19921;-79
2022/04/03 08:41:54;;;;;;;;;;;4.90;90.30;;;;;;5038038;28;19913;-78
2022/04/03 08:44:22;;;;;;;;;;;5.10;90.30;;;;;;5039123;28;20392;-77
2022/04/03 08:46:48;;;;;;;;;;;5.30;89.60;;;;;;5039573;28;19967;-78
2022/04/03 08:49:16;;;;;;;;;;;5.50;88.90;;;;;;5037154;28;19913;-78
2022/04/03 08:51:41;;;;;;;;;;;5.70;87.00;;;;;;5038072;28;19966;-79
2022/04/03 08:54:08;;;;;;;;;;;5.90;87.30;;;;;;5040540;28;19913;-82
2022/04/03 08:56:33;;;;;;;;;;;6.00;84.00;;;;;;5037553;28;19933;-79
2022/04/03 08:59:01;;;;;;;;;;;5.90;83.30;;;;;;5038716;28;19913;-78
2022/04/03 09:01:34;;;;;;;;;;;5.80;84.00;;;;;;5034881;28;19924;-79
2022/04/03 09:03:59;;;;;;;;;;;5.80;84.80;;;;;;5038994;28;19916;-79
2022/04/03 09:06:25;;;;;;;;;;;5.90;85.50;;;;;;5039944;28;19920;-79
2022/04/03 09:08:50;;;;;;;;;;;6.10;86.50;;;;;;5041800;28;19913;-79
2022/04/03 09:11:16;;;;;;;;;;;6.20;85.50;;;;;;5038127;28;20271;-77
2022/04/03 09:13:42;;;;;;;;;;;6.40;84.50;;;;;;5041596;28;20007;-79
2022/04/03 09:16:08;;;;;;;;;;;6.50;82.90;;;;;;5033206;28;19998;-78
2022/04/03 09:18:51;;;;;;;;;;;6.70;84.10;;;;;;5040487;28;20098;-75
2022/04/03 09:21:18;;;;;;;;;;;6.80;80.00;;;;;;5036466;28;20461;-65
2022/04/03 09:23:55;;;;;;;;;;;6.90;91.00;;;;;;5033119;28;20746;-70
2022/04/03 09:26:21;;;;;;;;;;;7.20;78.20;;;;;;5031653;28;19970;-71
2022/04/03 09:28:47;;;;;;;;;;;7.00;77.90;;;;;;5039583;28;19916;-73
2022/04/03 09:31:24;;;;;;;;;;;6.80;78.80;;;;;;5037127;28;19988;-74
2022/04/03 09:34:02;;;;;;;;;;;6.70;78.40;;;;;;5039247;28;20297;-73
2022/04/03 09:36:29;;;;;;;;;;;6.60;80.60;;;;;;5038427;28;19995;-74
2022/04/03 09:39:06;;;;;;;;;;;6.60;79.90;;;;;;5038601;28;20376;-74
2022/04/03 09:41:32;;;;;;;;;;;6.60;77.60;;;;;;5037487;28;19956;-72
2022/04/03 09:43:58;;;;;;;;;;;6.60;79.20;;;;;;5035577;28;19913;-73
2022/04/03 09:46:29;;;;;;;;;;;6.70;79.10;;;;;;5031015;28;19921;-72
2022/04/03 09:48:55;;;;;;;;;;;6.80;79.00;;;;;;5033514;28;19912;-71
2022/04/03 09:51:22;;;;;;;;;;;7.00;77.20;;;;;;5036116;28;20396;-73
2022/04/03 09:54:01;;;;;;;;;;;7.20;75.50;;;;;;5038678;28;20400;-74
2022/04/03 09:56:27;;;;;;;;;;;7.30;75.30;;;;;;5039542;28;19996;-74
2022/04/03 09:58:53;;;;;;;;;;;7.40;75.80;;;;;;5036198;28;20012;-74
2022/04/03 10:01:22;;;;;;;;;;;7.60;74.70;;;;;;5036758;28;19916;-75
2022/04/03 10:03:48;;;;;;;;;;;7.70;72.00;;;;;;5033450;28;20007;-75
2022/04/03 10:06:14;;;;;;;;;;;7.80;70.30;;;;;;5035320;28;19963;-75
2022/04/03 10:08:40;;;;;;;;;;;7.80;67.70;;;;;;5037650;28;19920;-74
2022/04/03 10:11:06;;;;;;;;;;;7.70;67.50;;;;;;5033546;28;19913;-76
2022/04/03 10:13:31;;;;;;;;;;;7.60;66.10;;;;;;5036774;28;20300;-76
2022/04/03 10:15:57;;;;;;;;;;;7.50;65.50;;;;;;5035322;28;20386;-74
2022/04/03 10:18:22;;;;;;;;;;;7.30;67.10;;;;;;5031948;28;20362;-75
2022/04/03 10:20:48;;;;;;;;;;;7.00;69.30;;;;;;5038879;28;20416;-74
2022/04/03 10:23:14;;;;;;;;;;;6.90;71.10;;;;;;5038311;28;20381;-75
2022/04/03 10:25:44;;;;;;;;;;;6.70;72.00;;;;;;5038659;28;19962;-74
2022/04/03 10:28:10;;;;;;;;;;;6.80;72.30;;;;;;5035987;28;19913;-75
2022/04/03 10:30:39;;;;;;;;;;;6.70;72.70;;;;;;5036521;28;20421;-74
2022/04/03 10:33:05;;;;;;;;;;;6.50;73.70;;;;;;5037743;28;20277;-75
2022/04/03 10:35:30;;;;;;;;;;;6.50;75.80;;;;;;5038606;28;19913;-74
2022/04/03 10:38:01;;;;;;;;;;;6.60;77.20;;;;;;5039435;28;19920;-74
2022/04/03 10:40:29;;;;;;;;;;;6.50;77.00;;;;;;5039417;28;19938;-74
2022/04/03 10:43:18;;;;;;;;;;;6.50;78.10;;;;;;5039700;28;20408;-74
2022/04/03 10:45:47;;;;;;;;;;;6.60;78.30;;;;;;5036696;28;19913;-75
2022/04/03 10:48:21;;;;;;;;;;;6.60;79.00;;;;;;5037893;28;19917;-75
2022/04/03 10:50:57;;;;;;;;;;;6.60;77.90;;;;;;5038788;28;20377;-75
2022/04/03 10:53:24;;;;;;;;;;;6.50;78.50;;;;;;5038674;28;19923;-75
2022/04/03 10:55:54;;;;;;;;;;;6.40;80.30;;;;;;5039118;28;19909;-74
2022/04/03 10:58:20;;;;;;;;;;;6.40;80.10;;;;;;5038352;28;20300;-74
2022/04/03 11:00:45;;;;;;;;;;;6.40;81.60;;;;;;5039113;28;20370;-74
2022/04/03 11:03:14;;;;;;;;;;;6.30;82.10;;;;;;5018502;28;19913;-74
2022/04/03 11:05:41;;;;;;;;;;;6.30;84.10;;;;;;5037824;28;19943;-75
2022/04/03 11:08:15;;;;;;;;;;;6.40;84.70;;;;;;5037718;28;20308;-74
2022/04/03 11:10:45;;;;;;;;;;;6.50;84.70;;;;;;5039359;28;19960;-74
2022/04/03 11:13:12;;;;;;;;;;;6.50;84.60;;;;;;5039005;28;19909;-74
2022/04/03 11:15:47;;;;;;;;;;;6.50;84.60;;;;;;5039418;28;19987;-75
2022/04/03 11:18:28;;;;;;;;;;;6.60;85.20;;;;;;5038322;28;19959;-75
2022/04/03 11:21:06;;;;;;;;;;;6.60;85.50;;;;;;5038068;28;19920;-75
2022/04/03 11:23:34;;;;;;;;;;;6.70;86.30;;;;;;5038340;28;19912;-75
2022/04/03 11:25:59;;;;;;;;;;;6.80;86.00;;;;;;5038817;28;19913;-75
2022/04/03 11:28:25;;;;;;;;;;;7.00;85.20;;;;;;5037879;28;19940;-74
2022/04/03 11:30:50;;;;;;;;;;;7.10;84.80;;;;;;5039166;28;19909;-75
2022/04/03 11:33:16;;;;;;;;;;;7.30;82.90;;;;;;5038175;28;19909;-75
2022/04/03 11:35:42;;;;;;;;;;;7.40;82.60;;;;;;5038852;28;19978;-75
2022/04/03 11:38:08;;;;;;;;;;;7.60;82.30;;;;;;5036867;28;19913;-75
2022/04/03 11:40:34;;;;;;;;;;;7.90;81.10;;;;;;5038186;28;19932;-75
2022/04/03 11:43:07;;;;;;;;;;;8.10;76.10;;;;;;5038618;28;20369;-75
2022/04/03 11:45:33;;;;;;;;;;;8.10;74.60;;;;;;5039205;28;19921;-75
2022/04/03 11:48:17;;;;;;;;;;;7.90;73.30;;;;;;5042675;28;19991;-75
2022/04/03 11:50:43;;;;;;;;;;;7.70;74.30;;;;;;5042441;28;19941;-75
2022/04/03 11:53:09;;;;;;;;;;;7.60;74.30;;;;;;5041948;28;19952;-75
2022/04/03 11:55:35;;;;;;;;;;;7.70;74.10;;;;;;5038147;28;19921;-75
2022/04/03 11:58:04;;;;;;;;;;;7.80;75.10;;;;;;5041627;28;20300;-75
2022/04/03 12:00:30;;;;;;;;;;;7.90;73.60;;;;;;5034070;28;20410;-78
2022/04/03 12:02:57;;;;;;;;;;;8.00;73.90;;;;;;5037870;28;19960;-74
2022/04/03 12:05:22;;;;;;;;;;;8.10;72.30;;;;;;5035040;28;21598;-74
2022/04/03 12:07:48;;;;;;;;;;;7.80;75.20;;;;;;5037097;28;20563;-74
2022/04/03 12:10:21;;;;;;;;;;;7.70;79.40;;;;;;5038507;28;19996;-75
2022/04/03 12:12:47;;;;;;;;;;;7.40;84.10;;;;;;5041801;28;19955;-74
2022/04/03 12:15:13;;;;;;;;;;;7.20;89.10;;;;;;5037980;28;19917;-74
2022/04/03 12:17:41;;;;;;;;;;;7.00;91.40;;;;;;5040132;28;19955;-74
2022/04/03 12:20:09;;;;;;;;;;;6.80;92.30;;;;;;5038458;28;19967;-73
2022/04/03 12:22:35;;;;;;;;;;;6.70;92.90;;;;;;5039802;28;19917;-74
2022/04/03 12:25:00;;;;;;;;;;;6.60;93.10;;;;;;5038954;28;19920;-73
2022/04/03 12:27:33;;;;;;;;;;;6.60;93.00;;;;;;5041668;28;19917;-73
2022/04/03 12:29:58;;;;;;;;;;;6.60;92.90;;;;;;5039199;28;19924;-75
2022/04/03 12:32:39;;;;;;;;;;;6.70;93.10;;;;;;5035038;28;19913;-74
2022/04/03 12:35:05;;;;;;;;;;;6.80;92.80;;;;;;5037712;28;19917;-73
2022/04/03 12:37:35;;;;;;;;;;;7.00;92.30;;;;;;5038589;28;19982;-74
2022/04/03 12:40:02;;;;;;;;;;;7.20;91.70;;;;;;5039440;28;19917;-74
2022/04/03 12:42:31;;;;;;;;;;;7.30;91.50;;;;;;5039229;28;20365;-74
2022/04/03 12:45:03;;;;;;;;;;;7.50;90.80;;;;;;5039477;28;19916;-75
2022/04/03 12:47:39;;;;;;;;;;;7.60;90.20;;;;;;5038153;28;20373;-75
2022/04/03 12:50:05;;;;;;;;;;;7.60;90.10;;;;;;5035823;28;19924;-75
2022/04/03 12:52:43;;;;;;;;;;;7.60;90.20;;;;;;5037953;28;19970;-75
2022/04/03 13:00:42;;;;;;;;;;;7.30;91.00;;;;;;5040334;28;19970;-74
2022/04/03 13:03:08;;;;;;;;;;;7.20;91.20;;;;;;5037688;28;20365;-75
2022/04/03 13:05:33;;;;;;;;;;;7.10;91.60;;;;;;5036812;28;19951;-75
2022/04/03 13:08:07;;;;;;;;;;;7.10;91.60;;;;;;5037556;28;19959;-75
2022/04/03 13:10:33;;;;;;;;;;;7.10;91.80;;;;;;5037883;28;19921;-75
2022/04/03 13:12:58;;;;;;;;;;;7.20;91.70;;;;;;5037379;28;19913;-74
2022/04/03 13:15:24;;;;;;;;;;;7.30;91.60;;;;;;5035405;28;19917;-75
2022/04/03 13:17:49;;;;;;;;;;;7.30;91.30;;;;;;5037655;28;19921;-74
2022/04/03 13:20:14;;;;;;;;;;;7.40;91.20;;;;;;5040540;28;19991;-75
2022/04/03 13:22:40;;;;;;;;;;;7.40;90.90;;;;;;5035817;28;19917;-75
2022/04/03 13:25:05;;;;;;;;;;;7.40;91.10;;;;;;5038563;28;19917;-75
2022/04/03 13:27:31;;;;;;;;;;;7.40;91.00;;;;;;5037765;28;19986;-75
2022/04/03 13:29:58;;;;;;;;;;;7.40;90.90;;;;;;5038950;28;19923;-74
2022/04/03 13:32:24;;;;;;;;;;;7.40;90.70;;;;;;5034925;28;19928;-74
2022/04/03 13:34:49;;;;;;;;;;;7.40;90.70;;;;;;5039286;28;20293;-74
2022/04/03 13:37:15;;;;;;;;;;;7.50;90.60;;;;;;5036200;28;19913;-74
2022/04/03 13:39:40;;;;;;;;;;;7.40;90.40;;;;;;5037933;28;19920;-74
2022/04/03 13:42:08;;;;;;;;;;;7.40;90.70;;;;;;5033720;28;19913;-73
2022/04/03 13:44:33;;;;;;;;;;;7.30;91.80;;;;;;5036313;28;19916;-74
2022/04/03 13:46:59;;;;;;;;;;;7.20;92.30;;;;;;5037934;28;19924;-75
2022/04/03 13:49:24;;;;;;;;;;;7.10;93.40;;;;;;5034508;28;19916;-74
2022/04/03 13:51:50;;;;;;;;;;;7.00;93.40;;;;;;5037992;28;19917;-74
2022/04/03 13:54:16;;;;;;;;;;;6.90;94.20;;;;;;5037143;28;19963;-74
2022/04/03 13:56:42;;;;;;;;;;;6.80;95.00;;;;;;5038032;28;19921;-74
2022/04/03 13:59:08;;;;;;;;;;;6.70;95.40;;;;;;5036337;28;20400;-75
2022/04/03 14:01:36;;;;;;;;;;;6.60;95.50;;;;;;5035238;28;20059;-74
2022/04/03 14:04:03;;;;;;;;;;;6.60;95.40;;;;;;5033550;28;19913;-74
2022/04/03 14:06:28;;;;;;;;;;;6.50;95.90;;;;;;5033186;28;19920;-74
2022/04/03 14:08:54;;;;;;;;;;;6.40;95.90;;;;;;5033190;28;19944;-74
2022/04/03 14:11:20;;;;;;;;;;;6.30;96.30;;;;;;5038209;28;20413;-74
2022/04/03 14:13:46;;;;;;;;;;;6.20;96.30;;;;;;5034031;28;19932;-74
2022/04/03 14:16:12;;;;;;;;;;;6.10;96.50;;;;;;5033549;28;19921;-74
2022/04/03 14:18:37;;;;;;;;;;;6.10;97.00;;;;;;5035964;28;19951;-74
2022/04/03 14:21:03;;;;;;;;;;;6.10;96.70;;;;;;5038053;28;19913;-74
2022/04/03 14:23:32;;;;;;;;;;;6.20;96.80;;;;;;5036901;28;19924;-74
2022/04/03 14:25:58;;;;;;;;;;;6.40;96.60;;;;;;5036198;28;19912;-74